createdAt,value
2019-04-06T00:00:11.659Z,19.38
2019-04-06T00:01:11.698Z,19.38
2019-04-06T00:02:11.327Z,19.37
2019-04-06T00:03:11.321Z,19.37
2019-04-06T00:04:11.209Z,19.36
2019-04-06T00:05:11.349Z,19.36
2019-04-06T00:06:11.338Z,19.34
2019-04-06T00:07:11.268Z,19.35
2019-04-06T00:08:11.391Z,19.34
2019-04-06T00:09:11.391Z,19.34
2019-04-06T00:10:11.483Z,19.33
2019-04-06T00:11:11.206Z,19.33
2019-04-06T00:12:11.393Z,19.33
2019-04-06T00:13:11.275Z,19.32
2019-04-06T00:14:11.455Z,19.31
2019-04-06T00:15:11.411Z,19.32
2019-04-06T00:16:11.448Z,19.32
2019-04-06T00:17:11.500Z,19.32
2019-04-06T00:18:11.509Z,19.31
2019-04-06T00:19:11.500Z,19.31
2019-04-06T00:20:11.578Z,19.29
2019-04-06T00:21:11.534Z,19.3
2019-04-06T00:22:11.433Z,19.29
2019-04-06T00:23:11.644Z,19.29
2019-04-06T00:24:11.266Z,19.29
2019-04-06T00:25:11.621Z,19.29
2019-04-06T00:26:11.276Z,19.28
2019-04-06T00:27:11.303Z,19.26
2019-04-06T00:28:11.517Z,19.27
2019-04-06T00:29:11.549Z,19.26
2019-04-06T00:30:11.350Z,19.27
2019-04-06T00:31:11.355Z,19.26
2019-04-06T00:32:11.390Z,19.27
2019-04-06T00:33:11.353Z,19.25
2019-04-06T00:34:11.486Z,19.25
2019-04-06T00:35:11.239Z,19.26
2019-04-06T00:36:11.608Z,19.25
2019-04-06T00:37:11.425Z,19.25
2019-04-06T00:38:11.397Z,19.25
2019-04-06T00:39:11.266Z,19.25
2019-04-06T00:40:11.447Z,19.24
2019-04-06T00:41:11.473Z,19.24
2019-04-06T00:42:11.498Z,19.23
2019-04-06T00:43:11.468Z,19.23
2019-04-06T00:44:12.307Z,19.23
2019-04-06T00:45:11.247Z,19.23
2019-04-06T00:46:11.371Z,19.22
2019-04-06T00:47:11.307Z,19.21
2019-04-06T00:48:11.397Z,19.22
2019-04-06T00:49:11.296Z,19.21
2019-04-06T00:50:11.344Z,19.21
2019-04-06T00:51:11.350Z,19.2
2019-04-06T00:52:11.355Z,19.21
2019-04-06T00:53:11.460Z,19.21
2019-04-06T00:54:11.362Z,19.21
2019-04-06T00:55:11.484Z,19.19
2019-04-06T00:56:11.485Z,19.2
2019-04-06T00:57:11.487Z,19.19
2019-04-06T00:58:11.395Z,19.19
2019-04-06T00:59:11.420Z,19.19
2019-04-06T01:00:11.429Z,19.19
2019-04-06T01:01:11.343Z,19.18
2019-04-06T01:02:11.581Z,19.19
2019-04-06T01:03:11.204Z,19.18
2019-04-06T01:04:11.507Z,19.18
2019-04-06T01:05:11.493Z,19.17
2019-04-06T01:06:12.026Z,19.17
2019-04-06T01:07:11.265Z,19.17
2019-04-06T01:08:11.224Z,19.17
2019-04-06T01:09:11.226Z,19.16
2019-04-06T01:10:11.356Z,19.16
2019-04-06T01:11:11.327Z,19.15
2019-04-06T01:12:11.413Z,19.15
2019-04-06T01:13:11.305Z,19.15
2019-04-06T01:14:11.346Z,19.15
2019-04-06T01:15:11.310Z,19.14
2019-04-06T01:16:11.341Z,19.14
2019-04-06T01:17:11.416Z,19.14
2019-04-06T01:18:11.358Z,19.13
2019-04-06T01:19:11.138Z,19.12
2019-04-06T01:20:11.359Z,19.13
2019-04-06T01:21:11.411Z,19.12
2019-04-06T01:22:11.652Z,19.12
2019-04-06T01:23:11.274Z,19.11
2019-04-06T01:24:11.501Z,19.11
2019-04-06T01:25:11.468Z,19.11
2019-04-06T01:26:11.463Z,19.11
2019-04-06T01:27:11.413Z,19.11
2019-04-06T01:28:11.294Z,19.11
2019-04-06T01:29:11.406Z,19.11
2019-04-06T01:30:11.285Z,19.1
2019-04-06T01:31:11.232Z,19.09
2019-04-06T01:32:11.307Z,19.1
2019-04-06T01:33:11.348Z,19.09
2019-04-06T01:34:11.433Z,19.09
2019-04-06T01:35:11.371Z,19.08
2019-04-06T01:36:11.272Z,19.08
2019-04-06T01:37:11.372Z,19.08
2019-04-06T01:38:11.415Z,19.08
2019-04-06T01:39:11.286Z,19.08
2019-04-06T01:40:11.310Z,19.07
2019-04-06T01:41:11.435Z,19.06
2019-04-06T01:42:11.414Z,19.06
2019-04-06T01:43:11.401Z,19.06
2019-04-06T01:44:11.442Z,19.06
2019-04-06T01:45:11.452Z,19.06
2019-04-06T01:46:11.447Z,19.04
2019-04-06T01:47:11.577Z,19.05
2019-04-06T01:48:11.494Z,19.05
2019-04-06T01:49:11.621Z,19.05
2019-04-06T01:50:11.226Z,19.05
2019-04-06T01:51:11.290Z,19.04
2019-04-06T01:52:11.436Z,19.03
2019-04-06T01:53:11.297Z,19.04
2019-04-06T01:54:11.312Z,19.03
2019-04-06T01:55:11.288Z,19.02
2019-04-06T01:56:18.211Z,19.02
2019-04-06T01:57:11.320Z,19.03
2019-04-06T01:58:11.315Z,19.03
2019-04-06T01:59:11.470Z,19.03
2019-04-06T02:00:11.324Z,19.02
2019-04-06T02:01:11.397Z,19.01
2019-04-06T02:02:11.388Z,19.02
2019-04-06T02:03:11.247Z,19.02
2019-04-06T02:04:11.376Z,19.02
2019-04-06T02:05:11.279Z,19.01
2019-04-06T02:06:11.434Z,19
2019-04-06T02:07:11.441Z,19
2019-04-06T02:08:11.229Z,19
2019-04-06T02:09:11.381Z,18.99
2019-04-06T02:10:11.383Z,19
2019-04-06T02:11:11.308Z,18.98
2019-04-06T02:12:11.314Z,18.98
2019-04-06T02:13:11.362Z,18.98
2019-04-06T02:14:11.320Z,18.98
2019-04-06T02:15:11.229Z,18.97
2019-04-06T02:16:11.347Z,18.98
2019-04-06T02:17:11.322Z,18.98
2019-04-06T02:18:11.383Z,18.98
2019-04-06T02:19:11.354Z,18.98
2019-04-06T02:20:11.377Z,18.97
2019-04-06T02:21:11.366Z,18.97
2019-04-06T02:22:11.376Z,18.97
2019-04-06T02:23:11.110Z,18.96
2019-04-06T02:24:11.397Z,18.96
2019-04-06T02:25:11.399Z,18.97
2019-04-06T02:26:11.455Z,18.95
2019-04-06T02:27:11.242Z,18.96
2019-04-06T02:28:11.531Z,18.95
2019-04-06T02:29:11.499Z,18.95
2019-04-06T02:30:11.466Z,18.94
2019-04-06T02:31:11.218Z,18.95
2019-04-06T02:32:11.200Z,18.95
2019-04-06T02:33:13.999Z,18.94
2019-04-06T02:34:11.244Z,18.94
2019-04-06T02:35:11.250Z,18.95
2019-04-06T02:36:11.441Z,18.94
2019-04-06T02:37:11.370Z,18.94
2019-04-06T02:38:11.262Z,18.94
2019-04-06T02:39:11.260Z,18.93
2019-04-06T02:40:11.297Z,18.92
2019-04-06T02:41:11.416Z,18.91
2019-04-06T02:42:11.324Z,18.91
2019-04-06T02:43:11.333Z,18.92
2019-04-06T02:44:11.367Z,18.92
2019-04-06T02:45:11.514Z,18.91
2019-04-06T02:46:11.541Z,18.91
2019-04-06T02:47:11.378Z,18.92
2019-04-06T02:48:11.400Z,18.9
2019-04-06T02:49:11.427Z,18.9
2019-04-06T02:50:11.409Z,18.9
2019-04-06T02:51:11.313Z,18.9
2019-04-06T02:52:11.616Z,18.9
2019-04-06T02:53:11.216Z,18.89
2019-04-06T02:54:11.702Z,18.88
2019-04-06T02:55:11.253Z,18.88
2019-04-06T02:56:11.575Z,18.88
2019-04-06T02:57:11.419Z,18.88
2019-04-06T02:58:11.276Z,18.88
2019-04-06T02:59:11.384Z,18.88
2019-04-06T03:00:11.294Z,18.87
2019-04-06T03:01:11.306Z,18.87
2019-04-06T03:02:11.530Z,18.87
2019-04-06T03:03:11.244Z,18.88
2019-04-06T03:04:11.358Z,18.87
2019-04-06T03:05:11.451Z,18.86
2019-04-06T03:06:11.440Z,18.85
2019-04-06T03:07:11.166Z,18.86
2019-04-06T03:08:11.548Z,18.85
2019-04-06T03:09:12.024Z,18.86
2019-04-06T03:10:11.395Z,18.85
2019-04-06T03:11:11.421Z,18.84
2019-04-06T03:12:11.689Z,18.84
2019-04-06T03:13:11.444Z,18.84
2019-04-06T03:14:11.469Z,18.84
2019-04-06T03:15:11.348Z,18.83
2019-04-06T03:16:11.287Z,18.84
2019-04-06T03:17:11.241Z,18.84
2019-04-06T03:18:11.201Z,18.83
2019-04-06T03:19:11.290Z,18.83
2019-04-06T03:20:11.310Z,18.83
2019-04-06T03:21:11.258Z,18.83
2019-04-06T03:22:11.285Z,18.83
2019-04-06T03:23:11.190Z,18.82
2019-04-06T03:24:11.404Z,18.81
2019-04-06T03:25:11.405Z,18.8
2019-04-06T03:26:11.349Z,18.81
2019-04-06T03:27:11.341Z,18.81
2019-04-06T03:28:11.369Z,18.82
2019-04-06T03:29:11.388Z,18.8
2019-04-06T03:30:11.443Z,18.81
2019-04-06T03:31:11.401Z,18.81
2019-04-06T03:32:11.424Z,18.8
2019-04-06T03:33:11.514Z,18.8
2019-04-06T03:34:12.291Z,18.8
2019-04-06T03:35:11.247Z,18.8
2019-04-06T03:36:11.319Z,18.79
2019-04-06T03:37:11.462Z,18.79
2019-04-06T03:38:11.578Z,18.79
2019-04-06T03:39:18.173Z,18.79
2019-04-06T03:40:11.334Z,18.8
2019-04-06T03:41:11.265Z,18.8
2019-04-06T03:42:11.665Z,18.8
2019-04-06T03:43:11.319Z,18.81
2019-04-06T03:44:11.339Z,18.81
2019-04-06T03:45:11.416Z,18.81
2019-04-06T03:46:11.339Z,18.81
2019-04-06T03:47:11.341Z,18.81
2019-04-06T03:48:11.400Z,18.82
2019-04-06T03:49:11.414Z,18.82
2019-04-06T03:50:11.281Z,18.82
2019-04-06T03:51:11.375Z,18.83
2019-04-06T03:52:11.563Z,18.84
2019-04-06T03:53:11.719Z,18.84
2019-04-06T03:54:11.162Z,18.84
2019-04-06T03:55:11.421Z,18.86
2019-04-06T03:56:11.444Z,18.87
2019-04-06T03:57:15.345Z,18.87
2019-04-06T03:58:11.216Z,18.88
2019-04-06T03:59:11.652Z,18.89
2019-04-06T04:00:11.296Z,18.91
2019-04-06T04:01:11.183Z,18.91
2019-04-06T04:02:11.272Z,18.93
2019-04-06T04:03:11.464Z,18.94
2019-04-06T04:04:11.276Z,18.96
2019-04-06T04:05:11.265Z,18.96
2019-04-06T04:06:11.275Z,18.98
2019-04-06T04:07:11.293Z,19
2019-04-06T04:08:11.313Z,19.01
2019-04-06T04:09:11.313Z,19.03
2019-04-06T04:10:11.427Z,19.04
2019-04-06T04:11:11.366Z,19.06
2019-04-06T04:12:11.505Z,19.07
2019-04-06T04:13:11.234Z,19.09
2019-04-06T04:14:11.366Z,19.11
2019-04-06T04:15:11.455Z,19.13
2019-04-06T04:16:11.458Z,19.15
2019-04-06T04:17:11.434Z,19.16
2019-04-06T04:18:11.193Z,19.17
2019-04-06T04:19:11.189Z,19.19
2019-04-06T04:20:11.457Z,19.21
2019-04-06T04:21:11.821Z,19.22
2019-04-06T04:22:11.449Z,19.23
2019-04-06T04:23:11.248Z,19.25
2019-04-06T04:24:11.350Z,19.26
2019-04-06T04:25:11.339Z,19.28
2019-04-06T04:26:11.205Z,19.29
2019-04-06T04:27:11.306Z,19.31
2019-04-06T04:28:11.367Z,19.32
2019-04-06T04:29:11.402Z,19.33
2019-04-06T04:30:11.164Z,19.34
2019-04-06T04:31:11.353Z,19.36
2019-04-06T04:32:11.345Z,19.37
2019-04-06T04:33:11.338Z,19.39
2019-04-06T04:34:11.345Z,19.4
2019-04-06T04:35:11.375Z,19.41
2019-04-06T04:36:11.525Z,19.42
2019-04-06T04:37:11.419Z,19.44
2019-04-06T04:38:11.183Z,19.46
2019-04-06T04:39:11.432Z,19.47
2019-04-06T04:40:11.407Z,19.47
2019-04-06T04:41:11.442Z,19.49
2019-04-06T04:42:11.345Z,19.5
2019-04-06T04:43:11.243Z,19.52
2019-04-06T04:44:11.202Z,19.52
2019-04-06T04:45:11.338Z,19.54
2019-04-06T04:46:11.189Z,19.55
2019-04-06T04:47:11.203Z,19.55
2019-04-06T04:48:11.233Z,19.57
2019-04-06T04:49:11.222Z,19.57
2019-04-06T04:50:11.449Z,19.59
2019-04-06T04:51:11.257Z,19.6
2019-04-06T04:52:11.259Z,19.61
2019-04-06T04:53:11.323Z,19.63
2019-04-06T04:54:11.390Z,19.64
2019-04-06T04:55:11.437Z,19.65
2019-04-06T04:56:11.361Z,19.65
2019-04-06T04:57:11.333Z,19.66
2019-04-06T04:58:11.330Z,19.69
2019-04-06T04:59:11.370Z,19.69
2019-04-06T05:00:11.401Z,19.7
2019-04-06T05:01:11.513Z,19.7
2019-04-06T05:02:11.228Z,19.71
2019-04-06T05:03:11.474Z,19.72
2019-04-06T05:04:11.362Z,19.74
2019-04-06T05:05:11.315Z,19.74
2019-04-06T05:06:11.280Z,19.75
2019-04-06T05:07:11.351Z,19.76
2019-04-06T05:08:11.378Z,19.78
2019-04-06T05:09:11.389Z,19.79
2019-04-06T05:10:11.245Z,19.79
2019-04-06T05:11:11.315Z,19.81
2019-04-06T05:12:11.317Z,19.81
2019-04-06T05:13:11.553Z,19.82
2019-04-06T05:14:11.359Z,19.83
2019-04-06T05:15:11.339Z,19.84
2019-04-06T05:16:11.311Z,19.85
2019-04-06T05:17:11.350Z,19.86
2019-04-06T05:18:11.375Z,19.87
2019-04-06T05:19:11.412Z,19.89
2019-04-06T05:20:11.378Z,19.89
2019-04-06T05:21:11.381Z,19.9
2019-04-06T05:22:11.186Z,19.91
2019-04-06T05:23:11.415Z,19.92
2019-04-06T05:24:11.566Z,19.93
2019-04-06T05:25:11.240Z,19.95
2019-04-06T05:26:11.227Z,19.94
2019-04-06T05:27:11.164Z,19.95
2019-04-06T05:28:11.203Z,19.97
2019-04-06T05:29:11.284Z,19.97
2019-04-06T05:30:11.100Z,19.97
2019-04-06T05:31:11.200Z,19.99
2019-04-06T05:32:11.283Z,19.99
2019-04-06T05:33:11.403Z,20
2019-04-06T05:34:11.098Z,20.02
2019-04-06T05:35:11.298Z,20.02
2019-04-06T05:36:11.267Z,20.03
2019-04-06T05:37:11.297Z,20.03
2019-04-06T05:38:11.064Z,20.05
2019-04-06T05:39:11.298Z,20.05
2019-04-06T05:40:11.315Z,20.06
2019-04-06T05:41:11.378Z,20.08
2019-04-06T05:42:11.144Z,20.08
2019-04-06T05:43:11.573Z,20.09
2019-04-06T05:44:11.244Z,20.1
2019-04-06T05:45:11.177Z,20.11
2019-04-06T05:46:11.284Z,20.12
2019-04-06T05:47:11.634Z,20.12
2019-04-06T05:48:11.311Z,20.12
2019-04-06T05:49:11.220Z,20.13
2019-04-06T05:50:11.197Z,20.14
2019-04-06T05:51:11.343Z,20.15
2019-04-06T05:52:11.645Z,20.16
2019-04-06T05:53:11.269Z,20.17
2019-04-06T05:54:11.231Z,20.18
2019-04-06T05:55:11.298Z,20.18
2019-04-06T05:56:11.398Z,20.19
2019-04-06T05:57:11.368Z,20.2
2019-04-06T05:58:11.120Z,20.2
2019-04-06T05:59:11.322Z,20.21
2019-04-06T06:00:11.594Z,20.22
2019-04-06T06:01:11.453Z,20.22
2019-04-06T06:02:11.476Z,20.24
2019-04-06T06:03:11.738Z,20.24
2019-04-06T06:04:11.474Z,20.24
2019-04-06T06:05:11.437Z,20.25
2019-04-06T06:06:12.514Z,20.26
2019-04-06T06:07:11.146Z,20.25
2019-04-06T06:08:11.370Z,20.26
2019-04-06T06:09:11.157Z,20.26
2019-04-06T06:10:11.189Z,20.27
2019-04-06T06:11:11.211Z,20.28
2019-04-06T06:12:11.202Z,20.28
2019-04-06T06:13:11.289Z,20.29
2019-04-06T06:14:11.286Z,20.29
2019-04-06T06:15:11.243Z,20.29
2019-04-06T06:16:11.834Z,20.29
2019-04-06T06:17:11.459Z,20.3
2019-04-06T06:18:11.249Z,20.3
2019-04-06T06:19:12.371Z,20.31
2019-04-06T06:20:11.302Z,20.31
2019-04-06T06:21:11.329Z,20.31
2019-04-06T06:22:11.546Z,20.32
2019-04-06T06:23:11.566Z,20.32
2019-04-06T06:24:11.142Z,20.32
2019-04-06T06:25:11.158Z,20.33
2019-04-06T06:26:11.341Z,20.34
2019-04-06T06:27:11.326Z,20.34
2019-04-06T06:28:14.803Z,20.35
2019-04-06T06:29:11.426Z,20.34
2019-04-06T06:30:11.343Z,20.35
2019-04-06T06:31:11.224Z,20.36
2019-04-06T06:32:11.483Z,20.36
2019-04-06T06:33:11.263Z,20.36
2019-04-06T06:34:11.558Z,20.37
2019-04-06T06:35:11.355Z,20.37
2019-04-06T06:36:11.423Z,20.37
2019-04-06T06:37:11.328Z,20.39
2019-04-06T06:38:11.275Z,20.39
2019-04-06T06:39:11.414Z,20.4
2019-04-06T06:40:11.350Z,20.41
2019-04-06T06:41:11.440Z,20.41
2019-04-06T06:42:11.092Z,20.41
2019-04-06T06:43:11.433Z,20.41
2019-04-06T06:44:11.180Z,20.43
2019-04-06T06:45:11.184Z,20.43
2019-04-06T06:46:11.146Z,20.44
2019-04-06T06:47:11.164Z,20.44
2019-04-06T06:48:11.233Z,20.44
2019-04-06T06:49:11.282Z,20.45
2019-04-06T06:50:11.202Z,20.46
2019-04-06T06:51:11.531Z,20.46
2019-04-06T06:52:11.571Z,20.46
2019-04-06T06:53:11.273Z,20.47
2019-04-06T06:54:11.300Z,20.47
2019-04-06T06:55:11.412Z,20.48
2019-04-06T06:56:11.139Z,20.48
2019-04-06T06:57:11.255Z,20.49
2019-04-06T06:58:11.262Z,20.5
2019-04-06T06:59:11.289Z,20.5
2019-04-06T07:00:11.343Z,20.5
2019-04-06T07:01:11.382Z,20.51
2019-04-06T07:02:11.437Z,20.51
2019-04-06T07:03:11.150Z,20.52
2019-04-06T07:04:11.262Z,20.53
2019-04-06T07:05:11.198Z,20.53
2019-04-06T07:06:11.156Z,20.53
2019-04-06T07:07:11.197Z,20.54
2019-04-06T07:08:11.173Z,20.55
2019-04-06T07:09:11.198Z,20.55
2019-04-06T07:10:11.235Z,20.56
2019-04-06T07:11:11.257Z,20.56
2019-04-06T07:12:11.258Z,20.57
2019-04-06T07:13:11.523Z,20.57
2019-04-06T07:14:11.303Z,20.57
2019-04-06T07:15:11.282Z,20.58
2019-04-06T07:16:11.327Z,20.58
2019-04-06T07:17:11.297Z,20.58
2019-04-06T07:18:11.353Z,20.59
2019-04-06T07:19:11.315Z,20.59
2019-04-06T07:20:11.345Z,20.6
2019-04-06T07:21:11.270Z,20.6
2019-04-06T07:22:11.041Z,20.61
2019-04-06T07:23:11.199Z,20.61
2019-04-06T07:24:11.002Z,20.62
2019-04-06T07:25:11.001Z,20.63
2019-04-06T07:26:11.148Z,20.63
2019-04-06T07:27:11.098Z,20.64
2019-04-06T07:28:11.282Z,20.64
2019-04-06T07:29:11.189Z,20.64
2019-04-06T07:30:11.109Z,20.65
2019-04-06T07:31:11.199Z,20.65
2019-04-06T07:32:11.203Z,20.65
2019-04-06T07:33:11.277Z,20.66
2019-04-06T07:34:11.178Z,20.67
2019-04-06T07:35:11.151Z,20.66
2019-04-06T07:36:11.309Z,20.66
2019-04-06T07:37:11.182Z,20.66
2019-04-06T07:38:11.199Z,20.66
2019-04-06T07:39:11.360Z,20.66
2019-04-06T07:40:11.345Z,20.67
2019-04-06T07:41:11.219Z,20.68
2019-04-06T07:42:11.009Z,20.68
2019-04-06T07:43:10.983Z,20.68
2019-04-06T07:44:11.046Z,20.67
2019-04-06T07:45:11.025Z,20.66
2019-04-06T07:46:11.103Z,20.55
2019-04-06T07:47:11.113Z,20.54
2019-04-06T07:48:11.227Z,20.54
2019-04-06T07:49:11.148Z,20.56
2019-04-06T07:50:11.113Z,20.56
2019-04-06T07:51:11.164Z,20.57
2019-04-06T07:52:11.102Z,20.58
2019-04-06T07:53:11.175Z,20.59
2019-04-06T07:54:11.135Z,20.6
2019-04-06T07:55:11.246Z,20.6
2019-04-06T07:56:11.402Z,20.61
2019-04-06T07:57:11.203Z,20.62
2019-04-06T07:58:11.314Z,20.63
2019-04-06T07:59:11.497Z,20.62
2019-04-06T08:00:11.264Z,20.64
2019-04-06T08:01:11.301Z,20.65
2019-04-06T08:02:11.015Z,20.65
2019-04-06T08:03:10.967Z,20.66
2019-04-06T08:04:11.093Z,20.66
2019-04-06T08:05:11.206Z,20.68
2019-04-06T08:06:11.085Z,20.68
2019-04-06T08:07:11.038Z,20.68
2019-04-06T08:08:11.161Z,20.68
2019-04-06T08:09:11.105Z,20.69
2019-04-06T08:10:10.984Z,20.71
2019-04-06T08:11:11.082Z,20.71
2019-04-06T08:12:11.141Z,20.71
2019-04-06T08:13:11.280Z,20.71
2019-04-06T08:14:11.321Z,20.72
2019-04-06T08:15:11.144Z,20.73
2019-04-06T08:16:11.132Z,20.73
2019-04-06T08:17:11.243Z,20.76
2019-04-06T08:18:11.349Z,20.71
2019-04-06T08:19:11.244Z,20.74
2019-04-06T08:20:11.313Z,20.74
2019-04-06T08:21:11.441Z,20.73
2019-04-06T08:22:18.595Z,20.73
2019-04-06T08:23:11.026Z,20.74
2019-04-06T08:24:11.039Z,20.75
2019-04-06T08:25:10.926Z,20.75
2019-04-06T08:26:11.054Z,20.76
2019-04-06T08:27:11.094Z,20.77
2019-04-06T08:28:11.041Z,20.76
2019-04-06T08:29:10.995Z,20.75
2019-04-06T08:30:11.163Z,20.76
2019-04-06T08:31:11.157Z,20.76
2019-04-06T08:32:11.163Z,20.76
2019-04-06T08:33:11.080Z,20.76
2019-04-06T08:34:13.354Z,20.76
2019-04-06T08:35:11.200Z,20.76
2019-04-06T08:36:11.195Z,20.75
2019-04-06T08:37:11.208Z,20.76
2019-04-06T08:38:11.213Z,20.75
2019-04-06T08:39:11.365Z,20.75
2019-04-06T08:40:11.186Z,20.75
2019-04-06T08:41:11.285Z,20.74
2019-04-06T08:42:11.203Z,20.75
2019-04-06T08:43:11.056Z,20.74
2019-04-06T08:44:11.208Z,20.73
2019-04-06T08:45:10.976Z,20.74
2019-04-06T08:46:11.051Z,20.74
2019-04-06T08:47:11.305Z,20.72
2019-04-06T08:48:11.117Z,20.72
2019-04-06T08:49:10.939Z,20.72
2019-04-06T08:50:11.366Z,20.72
2019-04-06T08:51:11.218Z,20.72
2019-04-06T08:52:11.701Z,20.71
2019-04-06T08:53:10.950Z,20.71
2019-04-06T08:54:11.120Z,20.71
2019-04-06T08:55:11.115Z,20.72
2019-04-06T08:56:11.187Z,20.72
2019-04-06T08:57:12.192Z,20.73
2019-04-06T08:58:11.378Z,20.73
2019-04-06T08:59:13.277Z,20.74
2019-04-06T09:00:12.143Z,20.75
2019-04-06T09:01:11.371Z,20.75
2019-04-06T09:02:11.078Z,20.74
2019-04-06T09:03:10.992Z,20.73
2019-04-06T09:04:11.248Z,20.74
2019-04-06T09:05:11.056Z,20.75
2019-04-06T09:06:11.007Z,20.76
2019-04-06T09:07:11.027Z,20.75
2019-04-06T09:08:11.220Z,20.75
2019-04-06T09:09:11.147Z,20.74
2019-04-06T09:10:10.985Z,20.72
2019-04-06T09:11:11.131Z,20.69
2019-04-06T09:12:11.204Z,20.68
2019-04-06T09:13:11.094Z,20.67
2019-04-06T09:14:10.901Z,20.66
2019-04-06T09:15:11.369Z,20.63
2019-04-06T09:16:11.339Z,20.62
2019-04-06T09:17:11.165Z,20.61
2019-04-06T09:18:11.350Z,20.6
2019-04-06T09:19:11.172Z,20.6
2019-04-06T09:20:11.341Z,20.59
2019-04-06T09:21:11.234Z,20.58
2019-04-06T09:22:11.206Z,20.57
2019-04-06T09:23:11.014Z,20.57
2019-04-06T09:24:10.985Z,20.56
2019-04-06T09:25:10.996Z,20.55
2019-04-06T09:26:11.007Z,20.54
2019-04-06T09:27:11.028Z,20.53
2019-04-06T09:28:11.095Z,20.52
2019-04-06T09:29:21.788Z,20.51
2019-04-06T09:30:11.046Z,20.51
2019-04-06T09:31:11.079Z,20.5
2019-04-06T09:32:11.119Z,20.5
2019-04-06T09:33:11.130Z,20.48
2019-04-06T09:34:10.927Z,20.48
2019-04-06T09:35:11.397Z,20.48
2019-04-06T09:36:11.164Z,20.47
2019-04-06T09:37:11.262Z,20.47
2019-04-06T09:38:11.123Z,20.45
2019-04-06T09:39:11.251Z,20.45
2019-04-06T09:40:11.020Z,20.44
2019-04-06T09:41:10.969Z,20.44
2019-04-06T09:42:11.144Z,20.43
2019-04-06T09:43:10.968Z,20.42
2019-04-06T09:44:11.534Z,20.41
2019-04-06T09:45:11.128Z,20.4
2019-04-06T09:46:11.096Z,20.41
2019-04-06T09:47:11.383Z,20.41
2019-04-06T09:48:11.085Z,20.4
2019-04-06T09:49:11.242Z,20.41
2019-04-06T09:50:10.875Z,20.4
2019-04-06T09:51:11.111Z,20.42
2019-04-06T09:52:11.212Z,20.42
2019-04-06T09:53:11.174Z,20.42
2019-04-06T09:54:11.114Z,20.42
2019-04-06T09:55:11.124Z,20.41
2019-04-06T09:56:11.323Z,20.41
2019-04-06T09:57:11.149Z,20.41
2019-04-06T09:58:11.179Z,20.42
2019-04-06T09:59:11.238Z,20.42
2019-04-06T10:00:10.995Z,20.42
2019-04-06T10:01:11.034Z,20.42
2019-04-06T10:02:11.277Z,20.42
2019-04-06T10:03:11.088Z,20.42
2019-04-06T10:04:11.017Z,20.42
2019-04-06T10:05:11.978Z,20.42
2019-04-06T10:06:11.044Z,20.41
2019-04-06T10:07:11.084Z,20.42
2019-04-06T10:08:11.257Z,20.41
2019-04-06T10:09:11.076Z,20.42
2019-04-06T10:10:10.936Z,20.41
2019-04-06T10:11:11.060Z,20.43
2019-04-06T10:12:11.253Z,20.44
2019-04-06T10:13:11.105Z,20.43
2019-04-06T10:14:11.139Z,20.42
2019-04-06T10:15:11.615Z,20.42
2019-04-06T10:16:11.421Z,20.41
2019-04-06T10:17:11.311Z,20.4
2019-04-06T10:18:11.137Z,20.4
2019-04-06T10:19:11.043Z,20.4
2019-04-06T10:20:10.942Z,20.39
2019-04-06T10:21:10.982Z,20.38
2019-04-06T10:22:10.991Z,20.37
2019-04-06T10:23:10.996Z,20.36
2019-04-06T10:24:11.032Z,20.36
2019-04-06T10:25:11.682Z,20.35
2019-04-06T10:26:11.053Z,20.35
2019-04-06T10:27:11.363Z,20.34
2019-04-06T10:28:11.368Z,20.34
2019-04-06T10:29:11.235Z,20.32
2019-04-06T10:30:11.120Z,20.3
2019-04-06T10:31:11.069Z,20.29
2019-04-06T10:32:11.348Z,20.27
2019-04-06T10:33:11.103Z,20.27
2019-04-06T10:34:10.906Z,20.27
2019-04-06T10:35:11.295Z,20.25
2019-04-06T10:36:11.169Z,20.24
2019-04-06T10:37:11.170Z,20.23
2019-04-06T10:38:11.133Z,20.23
2019-04-06T10:39:11.088Z,20.21
2019-04-06T10:40:10.944Z,20.21
2019-04-06T10:41:11.293Z,20.21
2019-04-06T10:42:11.020Z,20.2
2019-04-06T10:43:10.983Z,20.19
2019-04-06T10:44:11.313Z,20.18
2019-04-06T10:45:11.023Z,20.17
2019-04-06T10:46:11.022Z,20.18
2019-04-06T10:47:11.339Z,20.16
2019-04-06T10:48:11.132Z,20.16
2019-04-06T10:49:11.408Z,20.14
2019-04-06T10:50:11.053Z,20.14
2019-04-06T10:51:11.070Z,20.13
2019-04-06T10:52:11.144Z,20.14
2019-04-06T10:53:11.141Z,20.12
2019-04-06T10:54:11.080Z,20.11
2019-04-06T10:55:11.127Z,20.13
2019-04-06T10:56:11.550Z,20.13
2019-04-06T10:57:11.176Z,20.12
2019-04-06T10:58:10.911Z,20.13
2019-04-06T10:59:11.001Z,20.13
2019-04-06T11:00:11.054Z,20.14
2019-04-06T11:01:11.185Z,20.14
2019-04-06T11:02:11.025Z,20.13
2019-04-06T11:03:11.053Z,20.14
2019-04-06T11:04:11.149Z,20.14
2019-04-06T11:05:11.068Z,20.14
2019-04-06T11:06:11.027Z,20.14
2019-04-06T11:07:11.165Z,20.13
2019-04-06T11:08:11.121Z,20.15
2019-04-06T11:09:11.107Z,20.14
2019-04-06T11:10:11.347Z,20.14
2019-04-06T11:11:11.263Z,20.14
2019-04-06T11:12:11.219Z,20.14
2019-04-06T11:13:11.178Z,20.13
2019-04-06T11:14:11.054Z,20.13
2019-04-06T11:15:10.895Z,20.11
2019-04-06T11:16:10.856Z,20.12
2019-04-06T11:17:10.973Z,20.11
2019-04-06T11:18:10.986Z,20.11
2019-04-06T11:19:11.180Z,20.11
2019-04-06T11:20:10.938Z,20.1
2019-04-06T11:21:11.126Z,20.1
2019-04-06T11:22:11.004Z,20.1
2019-04-06T11:23:11.064Z,20.09
2019-04-06T11:24:11.056Z,20.08
2019-04-06T11:25:11.037Z,20.06
2019-04-06T11:26:11.065Z,20.06
2019-04-06T11:27:11.085Z,20.04
2019-04-06T11:28:11.205Z,20.04
2019-04-06T11:29:11.089Z,20.02
2019-04-06T11:30:13.419Z,20.03
2019-04-06T11:31:11.103Z,20.02
2019-04-06T11:32:11.286Z,20.01
2019-04-06T11:33:11.009Z,20
2019-04-06T11:34:10.908Z,20
2019-04-06T11:35:11.237Z,19.99
2019-04-06T11:36:11.167Z,19.98
2019-04-06T11:37:10.939Z,19.98
2019-04-06T11:38:11.048Z,19.98
2019-04-06T11:39:10.996Z,19.97
2019-04-06T11:40:11.024Z,19.96
2019-04-06T11:41:11.067Z,19.96
2019-04-06T11:42:11.014Z,19.96
2019-04-06T11:43:10.963Z,19.94
2019-04-06T11:44:11.178Z,19.94
2019-04-06T11:45:11.026Z,19.94
2019-04-06T11:46:11.059Z,19.94
2019-04-06T11:47:11.153Z,19.93
2019-04-06T11:48:11.071Z,19.92
2019-04-06T11:49:11.229Z,19.92
2019-04-06T11:50:11.136Z,19.9
2019-04-06T11:51:11.160Z,19.9
2019-04-06T11:52:11.316Z,19.89
2019-04-06T11:53:11.026Z,19.89
2019-04-06T11:54:11.214Z,19.89
2019-04-06T11:55:10.896Z,19.88
2019-04-06T11:56:11.035Z,19.89
2019-04-06T11:57:10.965Z,19.87
2019-04-06T11:58:11.061Z,19.86
2019-04-06T11:59:10.992Z,19.87
2019-04-06T12:00:10.977Z,19.86
2019-04-06T12:01:11.092Z,19.86
2019-04-06T12:02:11.051Z,19.85
2019-04-06T12:03:11.060Z,19.84
2019-04-06T12:04:11.270Z,19.84
2019-04-06T12:05:11.075Z,19.84
2019-04-06T12:06:11.305Z,19.84
2019-04-06T12:07:11.247Z,19.83
2019-04-06T12:08:11.317Z,19.83
2019-04-06T12:09:11.068Z,19.82
2019-04-06T12:10:11.565Z,19.81
2019-04-06T12:11:11.167Z,19.82
2019-04-06T12:12:11.010Z,19.81
2019-04-06T12:13:11.241Z,19.8
2019-04-06T12:14:11.011Z,19.8
2019-04-06T12:15:10.950Z,19.8
2019-04-06T12:16:10.970Z,19.79
2019-04-06T12:17:11.019Z,19.8
2019-04-06T12:18:11.081Z,19.78
2019-04-06T12:19:10.975Z,19.78
2019-04-06T12:20:11.112Z,19.78
2019-04-06T12:21:11.024Z,19.77
2019-04-06T12:22:11.161Z,19.78
2019-04-06T12:23:11.043Z,19.76
2019-04-06T12:24:11.316Z,19.75
2019-04-06T12:25:11.210Z,19.76
2019-04-06T12:26:10.943Z,19.76
2019-04-06T12:27:11.141Z,19.78
2019-04-06T12:28:11.196Z,19.79
2019-04-06T12:29:11.331Z,19.79
2019-04-06T12:30:10.858Z,19.79
2019-04-06T12:31:10.930Z,19.8
2019-04-06T12:32:11.086Z,19.8
2019-04-06T12:33:11.054Z,19.8
2019-04-06T12:34:11.201Z,19.8
2019-04-06T12:35:10.924Z,19.81
2019-04-06T12:36:11.489Z,19.8
2019-04-06T12:37:11.274Z,19.81
2019-04-06T12:38:10.995Z,19.81
2019-04-06T12:39:11.004Z,19.81
2019-04-06T12:40:10.997Z,19.81
2019-04-06T12:41:11.421Z,19.81
2019-04-06T12:42:11.035Z,19.82
2019-04-06T12:43:11.127Z,19.81
2019-04-06T12:44:11.086Z,19.82
2019-04-06T12:45:11.132Z,19.82
2019-04-06T12:46:10.892Z,19.83
2019-04-06T12:47:11.098Z,19.84
2019-04-06T12:48:11.206Z,19.84
2019-04-06T12:49:11.171Z,19.85
2019-04-06T12:50:10.909Z,19.84
2019-04-06T12:51:10.901Z,19.84
2019-04-06T12:52:11.035Z,19.84
2019-04-06T12:53:11.006Z,19.84
2019-04-06T12:54:10.863Z,19.84
2019-04-06T12:55:10.946Z,19.84